• Join FlightAware (Why Join?)
  • Login
  • US Flag 
03:28PM EDT


 

Airport Tracker/Info


-or-


 

Live Flight TrackerFlight Track Log ✈ N18373 ✈ 11-Jul-2014 ✈ KHXD - KCZG

Flight Track Log - Related Links

Times and Time Zones

All times are in EDT time to prevent confusion due to time zone crossing. See the N18373 flight status page for this flight to view local times or setup timezone preferences in your user account.

Time Position Orientation Groundspeed Altitude Reporting Facility
EDT Latitude Longitude Course Direction KTS MPH feet Rate Location/Type
08:44AM 32.4714 -80.5643 23° Northeast  Level FlightAware Approximate
08:45AM 32.5134 -80.5433 23° Northeast  Level FlightAware Approximate
08:46AM 32.5555 -80.5223 23° Northeast  Level FlightAware Approximate
08:47AM 32.5976 -80.5013 23° Northeast  Level FlightAware Approximate
08:48AM 32.6396 -80.4802 23° Northeast  Level FlightAware Approximate
08:49AM 32.6816 -80.4588 24° Northeast  Level FlightAware Approximate
08:50AM 32.7232 -80.4367 24° Northeast  Level FlightAware Approximate
08:51AM 32.7649 -80.4145 24° Northeast  Level FlightAware Approximate
08:52AM 32.8066 -80.3923 24° Northeast  Level FlightAware Approximate
08:53AM 32.8483 -80.3702 24° Northeast  Level FlightAware Approximate
08:54AM 32.8899 -80.3480 24° Northeast  Level FlightAware Approximate
08:55AM 32.9316 -80.3258 24° Northeast  Level FlightAware Approximate
08:56AM 32.9733 -80.3035 24° Northeast  Level FlightAware Approximate
08:57AM 33.0149 -80.2812 24° Northeast  Level FlightAware Approximate
08:58AM 33.0566 -80.2590 24° Northeast  Level FlightAware Approximate
08:59AM 33.0982 -80.2366 24° Northeast  Level FlightAware Approximate
09:00AM 33.1399 -80.2143 24° Northeast  Level FlightAware Approximate
09:01AM 33.1815 -80.1920 24° Northeast  Level FlightAware Approximate
09:02AM 33.2231 -80.1696 24° Northeast  Level FlightAware Approximate
09:03AM 33.2648 -80.1472 24° Northeast  Level FlightAware Approximate
09:04AM 33.3064 -80.1248 24° Northeast  Level FlightAware Approximate
09:05AM 33.3480 -80.1024 24° Northeast  Level FlightAware Approximate
09:06AM 33.3898 -80.0801 23° Northeast  Level FlightAware Approximate
09:07AM 33.4319 -80.0592 23° Northeast  Level FlightAware Approximate
09:08AM 33.4741 -80.0382 23° Northeast  Level FlightAware Approximate
09:09AM 33.5162 -80.0172 23° Northeast  Level FlightAware Approximate
09:10AM 33.5584 -79.9961 23° Northeast  Level FlightAware Approximate
09:11AM 33.6005 -79.9751 23° Northeast  Level FlightAware Approximate
09:12AM 33.6427 -79.9540 23° Northeast  Level FlightAware Approximate
09:13AM 33.6848 -79.9329 23° Northeast  Level FlightAware Approximate
09:14AM 33.7269 -79.9118 23° Northeast  Level FlightAware Approximate
09:15AM 33.7691 -79.8907 23° Northeast  Level FlightAware Approximate
09:16AM 33.8112 -79.8695 23° Northeast  Level FlightAware Approximate
09:17AM 33.8533 -79.8482 24° Northeast  Level FlightAware Approximate
09:18AM 33.8949 -79.8256 24° Northeast  Level FlightAware Approximate
09:19AM 33.9365 -79.8030 24° Northeast  Level FlightAware Approximate
09:20AM 33.9781 -79.7803 24° Northeast  Level FlightAware Approximate
09:21AM 34.0197 -79.7577 24° Northeast  Level FlightAware Approximate
09:22AM 34.0613 -79.7350 24° Northeast  Level FlightAware Approximate
09:23AM 34.1029 -79.7122 24° Northeast  Level FlightAware Approximate
09:24AM 34.1445 -79.6895 24° Northeast  Level FlightAware Approximate
09:25AM 34.1861 -79.6667 24° Northeast  Level FlightAware Approximate
09:26AM 34.2285 -79.6468 13° North  Level FlightAware Approximate
09:27AM 34.2730 -79.6347 13° North  Level FlightAware Approximate
09:28AM 34.3175 -79.6226 13° North  Level FlightAware Approximate
09:29AM 34.3621 -79.6105 13° North  Level FlightAware Approximate
09:30AM 34.4066 -79.5983 13° North  Level FlightAware Approximate
09:30AM 34.5492 -79.5936 14° North 177 204 9,100  Level Washington Center
09:31AM 34.4511 -79.5862 13° North  Level FlightAware Approximate
09:32AM 34.6157 -79.5706 16° North  Level FlightAware Approximate
09:32AM 34.4957 -79.5740 13° North  Level FlightAware Approximate
09:33AM 34.5402 -79.5618 13° North  Level FlightAware Approximate
09:33AM 34.7047 -79.5633 16° North 178 205 9,000  Level Washington Center
09:37AM 34.8811 -79.5314 17° North 179 206 9,000  Level Washington Center
09:41AM 35.0953 -79.4886 20° North 183 211 9,000  Level Washington Center
09:45AM 35.2875 -79.4139 19° North 181 208 9,000  Level Washington Center
09:46AM 35.2571 -79.3704 20° North  Level FlightAware Approximate
09:46AM 35.3128 -79.4050 16° North 181 208 9,100  Level Washington Center
09:47AM 35.2998 -79.3508 20° North  Level FlightAware Approximate
09:47AM 35.3572 -79.3919 13° North 181 208 9,000  Level Washington Center
09:48AM 35.4058 -79.3711 19° North 181 208 9,100 -60 Climbing Washington Center
09:49AM 35.4542 -79.3531 17° North 179 206 8,900 -120 Descending Washington Center
09:50AM 35.4603 -79.3677 15° North  Level Estimated
09:50AM 35.4942 -79.3422 12° North 190 219 8,900  Level Washington Center
09:51AM 35.5034 -79.3493 19° North  Level FlightAware Approximate
09:51AM 35.5428 -79.3242 17° North 180 207 8,900  Level Washington Center
09:52AM 35.5894 -79.3033 20° North 177 204 8,900  Level Washington Center
09:53AM 35.6358 -79.2875 16° North 167 192 8,900  Level Washington Center
09:54AM 35.6842 -79.2744 12° North 177 204 8,900  Level Washington Center
09:55AM 35.7328 -79.2561 17° North 176 203 8,900  Level Washington Center
09:55AM 35.7731 -79.2375 21° North 177 204 8,900  Level Washington Center
09:57AM 35.8278 -79.2169 17° North 176 203 8,900  Level Washington Center
09:58AM 35.8742 -79.2011 15° North 176 203 8,900  Level Washington Center
09:59AM 35.9228 -79.1856 15° North 174 200 8,900  Level Washington Center
10:00AM 35.9736 -79.1594 23° Northeast 171 197 9,000  Climbing Washington Center
10:01AM 36.0178 -79.1461 14° North 170 196 9,000  Level Washington Center
10:02AM 36.0642 -79.1303 15° North 197 227 9,000  Level Washington Center
10:03AM 36.1064 -79.1142 17° North 190 219 9,000  Level Washington Center
10:04AM 36.1550 -79.0931 19° North 179 206 9,000  Level Washington Center
10:05AM 36.1992 -79.0797 14° North 174 200 9,000  Level Washington Center
10:06AM 36.2497 -79.0614 16° North 169 194 9,000  Level Washington Center
10:07AM 36.2919 -79.0453 17° North 169 194 9,000  Level Washington Center
10:08AM 36.3425 -79.0267 17° North 169 194 9,100  Climbing Washington Center
10:09AM 36.3869 -79.0106 16° North 169 194 9,000 -60 Descending Washington Center
10:10AM 36.4331 -78.9972 13° North 169 194 9,000  Level Washington Center
10:11AM 36.4775 -78.9811 16° North 164 189 9,000  Level Washington Center
10:12AM 36.5281 -78.9600 19° North 164 189 9,000  Level Washington Center
10:13AM 36.5722 -78.9464 14° North 164 189 9,000  Level Washington Center
10:14AM 36.6208 -78.9278 17° North 164 189 9,000  Level Washington Center
10:15AM 36.6756 -78.9042 19° North 164 189 9,000  Level Washington Center
10:16AM 36.7200 -78.8853 19° North 169 194 9,000  Level Washington Center
10:17AM 36.7706 -78.8667 16° North 169 194 9,000  Level Washington Center
10:18AM 36.8147 -78.8506 16° North 169 194 9,000  Level Washington Center
10:19AM 36.8614 -78.8317 18° North 169 194 9,000  Level Washington Center
10:20AM 36.9097 -78.8156 15° North 169 194 9,100  Climbing Washington Center
10:21AM 36.9561 -78.7967 18° North 169 194 9,100  Level Washington Center
10:22AM 37.0025 -78.7803 16° North 169 194 9,100  Level Washington Center
10:23AM 37.0489 -78.7614 18° North 169 194 9,100 -60 Level Washington Center
10:24AM 37.0972 -78.7428 17° North 169 194 9,000 -60 Descending Washington Center
10:25AM 37.1458 -78.7264 15° North 169 194 9,000  Level Washington Center
10:26AM 37.1900 -78.7100 16° North 169 194 9,000  Level Washington Center
10:27AM 37.2383 -78.6911 17° North 164 189 9,000  Level Washington Center
10:28AM 37.2869 -78.6747 15° North 164 189 9,100  Climbing Washington Center
10:29AM 37.3292 -78.6556 20° North 169 194 9,100  Level Washington Center
10:30AM 37.3753 -78.6392 16° North 169 194 9,100  Level Washington Center
10:31AM 37.4217 -78.6228 16° North 169 194 9,100 -60 Level Washington Center
10:32AM 37.4703 -78.6011 19° North 169 194 9,000 -60 Descending Washington Center
10:33AM 37.5186 -78.5847 15° North 169 194 9,000  Level Washington Center
10:34AM 37.5650 -78.5681 16° North 169 194 9,000  Level Washington Center
10:35AM 37.6092 -78.5489 19° North 169 194 9,000  Level Washington Center
10:36AM 37.6575 -78.5325 15° North 169 194 9,000  Level Washington Center
10:37AM 37.7039 -78.5131 18° North 169 194 9,000  Level Washington Center
10:38AM 37.7503 -78.4967 16° North 164 189 9,000  Level Washington Center
10:39AM 37.7964 -78.4800 16° North 164 189 9,000  Level Washington Center
10:40AM 37.8428 -78.4633 16° North 164 189 9,000  Level Washington Center
10:41AM 37.8911 -78.4442 17° North 164 189 9,100  Climbing Washington Center
10:42AM 37.9375 -78.4247 18° North 164 189 9,100  Level Washington Center
10:43AM 37.9817 -78.4056 19° North 169 194 9,100  Level Washington Center
10:45AM 38.0833 -78.3667 17° North 176 203 9,100  Level Potomac TRACON
10:46AM 38.1333 -78.3500 15° North 182 209 9,100 -60 Level Potomac TRACON
10:47AM 38.1667 -78.3333 21° North 187 215 9,000 -60 Descending Potomac TRACON
10:48AM 38.2167 -78.3167 15° North 181 208 9,000  Level Potomac TRACON
10:49AM 38.2667 -78.3000 15° North 181 208 9,000  Level Potomac TRACON
10:50AM 38.3167 -78.2667 28° Northeast 179 206 9,100  Climbing Potomac TRACON
10:51AM 38.3667 -78.2500 15° North 181 208 9,000 -60 Descending Potomac TRACON
10:52AM 38.4000 -78.2333 21° North 180 207 9,000  Level Potomac TRACON
10:53AM 38.4500 -78.2167 15° North 178 205 9,100  Climbing Potomac TRACON
10:54AM 38.5000 -78.2000 15° North 178 205 9,100  Level Potomac TRACON
10:55AM 38.5500 -78.1833 15° North 180 207 9,100 -60 Level Potomac TRACON
10:56AM 38.6000 -78.1667 15° North 178 205 9,000 -60 Descending Potomac TRACON
10:56AM 38.6333 -78.1500 21° North 176 203 9,000 -240 Level Potomac TRACON
10:57AM 38.6833 -78.1167 27° Northeast 189 217 8,600 -600 Descending Potomac TRACON
10:58AM 38.7500 -78.1000 11° North 195 224 7,900 -780 Descending Potomac TRACON
10:59AM 38.8000 -78.1000 360° North 198 228 7,100 -480 Descending Potomac TRACON
11:00AM 38.8500 -78.1000 360° North 181 208 7,000 -60 Descending Potomac TRACON
11:01AM 38.9000 -78.1000 360° North 162 186 7,000  Level Potomac TRACON
11:02AM 38.9333 -78.1000 360° North 167 192 7,000  Level Potomac TRACON
11:03AM 38.9833 -78.1000 360° North 163 188 7,100  Climbing Potomac TRACON
11:04AM 39.0167 -78.1000 360° North 168 193 7,000 -60 Descending Potomac TRACON
11:05AM 39.0667 -78.1000 360° North 166 191 7,000  Level Potomac TRACON
11:07AM 39.1500 -78.0667 33° Northeast 170 196 7,100  Climbing Potomac TRACON
11:08AM 39.2000 -78.0167 38° Northeast 171 197 7,000 -60 Descending Potomac TRACON
11:09AM 39.2333 -77.9833 38° Northeast 171 197 7,000  Level Potomac TRACON
11:10AM 39.2667 -77.9500 38° Northeast 168 193 7,000  Level Potomac TRACON
11:11AM 39.3167 -77.9167 27° Northeast 174 200 7,000  Level Potomac TRACON
11:12AM 39.3500 -77.8833 38° Northeast 178 205 7,000  Level Potomac TRACON
11:13AM 39.4000 -77.8500 27° Northeast 172 198 7,000  Level Potomac TRACON
11:14AM 39.4333 -77.8167 38° Northeast 171 197 7,000  Level Potomac TRACON
11:15AM 39.4833 -77.8000 14° North 172 198 7,000  Level Potomac TRACON
11:16AM 39.5167 -77.7833 21° North 168 193 7,000  Level Potomac TRACON
11:17AM 39.5667 -77.7500 27° Northeast 172 198 7,000  Level Potomac TRACON
11:18AM 39.6167 -77.7333 14° North 172 198 7,000  Level Potomac TRACON
11:19AM 39.6500 -77.7000 38° Northeast 168 193 7,000  Level Potomac TRACON
11:20AM 39.7000 -77.6833 14° North 171 197 7,000  Level Potomac TRACON
11:21AM 39.7500 -77.6667 14° North 170 196 7,000  Level Potomac TRACON
11:36AM 40.3611 -77.3222 23° Northeast 167 192 7,000  Level New York Center
11:37AM 40.4090 -77.2808 23° Northeast  Level FlightAware Approximate
11:37AM 40.4083 -77.2967 22° Northeast 187 215 7,000  Level New York Center
11:38AM 40.4530 -77.2561 23° Northeast  Level FlightAware Approximate
11:38AM 40.4472 -77.2731 25° Northeast 173 199 7,000  Level New York Center
11:39AM 40.4969 -77.2313 23° Northeast  Level FlightAware Approximate
11:39AM 40.4944 -77.2475 22° Northeast 167 192 7,000  Level New York Center
11:40AM 40.5409 -77.2065 23° Northeast  Level FlightAware Approximate
11:40AM 40.5331 -77.2267 22° Northeast 162 186 7,000  Level New York Center
11:41AM 40.5803 -77.2011 22° Northeast 162 186 7,000  Level New York Center
11:42AM 40.6192 -77.1800 22° Northeast 162 186 7,000  Level New York Center
11:43AM 40.6706 -77.1519 22° Northeast 162 186 7,000  Level New York Center
11:44AM 40.7117 -77.1256 26° Northeast 162 186 7,000  Level New York Center
11:45AM 40.7567 -77.1025 21° North 162 186 7,000  Level New York Center
11:46AM 40.7994 -77.0789 23° Northeast 162 186 7,000  Level New York Center
11:47AM 40.8425 -77.0528 25° Northeast 162 186 7,000  Level New York Center
11:48AM 40.8856 -77.0292 23° Northeast 162 186 7,000  Level New York Center
11:49AM 40.9283 -77.0058 22° Northeast 162 186 7,000  Level New York Center
11:50AM 40.9733 -76.9822 22° Northeast 162 186 7,000  Level New York Center
11:51AM 41.0164 -76.9589 22° Northeast 162 186 7,000  Level New York Center
11:52AM 41.0614 -76.9325 24° Northeast 162 186 7,000  Level New York Center
11:53AM 41.1022 -76.9089 24° Northeast 162 186 7,000  Level New York Center
11:54AM 41.1453 -76.8822 25° Northeast 162 186 7,000  Level New York Center
11:55AM 41.1903 -76.8589 21° North 162 186 7,000  Level New York Center
11:56AM 41.2333 -76.8350 23° Northeast 162 186 7,000  Level New York Center
11:57AM 41.2767 -76.8003 31° Northeast 162 186 7,000  Level New York Center
11:58AM 41.3119 -76.7619 39° Northeast 167 192 7,000  Level New York Center
11:59AM 41.3533 -76.7269 32° Northeast 167 192 7,000  Level New York Center
12:00PM 41.3903 -76.6972 31° Northeast 167 192 7,000  Level New York Center
12:01PM 41.4339 -76.6539 37° Northeast 174 200 7,000  Level New York Center
12:02PM 41.4733 -76.6186 34° Northeast 174 200 7,000  Level New York Center
12:03PM 41.5100 -76.5886 31° Northeast 174 200 7,000  Level New York Center
12:04PM 41.5517 -76.5506 34° Northeast 174 200 7,000 -300 Level New York Center
12:05PM 41.5972 -76.5128 32° Northeast 174 200 6,500 -600 Descending New York Center
12:06PM 41.6347 -76.4689 41° Northeast 174 200 5,800 -720 Descending New York Center
12:07PM 41.6739 -76.4306 36° Northeast 179 206 5,100 -420 Descending New York Center
12:08PM 41.7069 -76.3944 39° Northeast 179 206 5,000 -300 Descending New York Center
12:09PM 41.7439 -76.3614 34° Northeast 168 193 4,600 -420 Descending New York Center
12:10PM 41.7889 -76.3319 26° Northeast 161 185 4,200 -360 Descending New York Center
12:11PM 41.8275 -76.3100 23° Northeast 156 180 4,000 -120 Descending New York Center
12:12PM 41.8642 -76.2853 27° Northeast 151 174 4,000  Level New York Center
12:13PM 41.8947 -76.2517 39° Northeast 151 174 4,000 -180 Level New York Center
12:14PM 41.9278 -76.2097 43° Northeast 146 168 3,700 -300 Descending New York Center
12:15PM 41.9592 -76.1650 47° Northeast 146 168 3,400 -420 Descending New York Center
12:16PM 41.9897 -76.1339 37° Northeast 153 176 2,900 -540 Descending New York Center
12:19PM 42.0667 -76.0833 37° Northeast  Level FlightAware Approximate
12:26PM 42.0785 -76.0963 37° Northeast  Level Estimated
12:27PM 42.0785 -76.0963 37° Northeast  Level Estimated
12:28PM 42.0785 -76.0963 37° Northeast  Level Estimated
12:29PM 42.0785 -76.0963 37° Northeast  Level Estimated
12:30PM 42.0785 -76.0963 37° Northeast  Level Estimated
12:31PM 42.0785 -76.0963 37° Northeast  Level Estimated
12:32PM 42.0785 -76.0963 37° Northeast  Level Estimated
12:33PM 42.0785 -76.0963 37° Northeast  Level Estimated
12:34PM 42.0785 -76.0963 37° Northeast  Level Estimated
12:35PM 42.0785 -76.0963 37° Northeast  Level Estimated